LiveATC.Net - Listen to live air traffic control over the Internet!


ICAO: ENKJ  IATA:   Airport: Kjeller Airport
City: Kjeller
Country: Norway   Continent: Europe
ENGM METAR Weather: ENGM 251550Z 21009KT 9999 -RA SCT010 BKN025 09/08 Q1004 TEMPO BKN010
ENKJ Flight Activity (FlightAware)
ENKJ Webcam:  (Airport Webcams) 

ENKJ RDO #1
Feed Status: DOWN
Last heard on: 2020-11-03 12:10:05 (22 days 4 hours 10 minutes ago)
Archive Access: ENKJ RDO #1
FacilityFrequency
Kjeller RDO119.100

ENKJ RDO #2
Feed Status: UP   Listeners: 0
Listen in your browser - HTML5 player (in browser, HTML5)
Click here to listen with your own player (launches your MP3 player)
Archive Access: ENKJ RDO #2
FacilityFrequency
Kjeller RDO119.100

NOTICE

Unauthorized use prohibited. See LiveATC.net Terms of Service


Airport/ARTCC Code
Frequency Search
(e.g., 124.400, 128.75)
Site-wide search
 


Browse Feeds
Top 50 Feeds
Coverage Map
Bad Weather Areas

LiveATC FAQ
Offer LiveATC feed
Contact LiveATC.net
Press Inquiries

LiveATC on iPhone
LiveATC on Android

Windows Phone
Windows 8/10

LiveATC Mobile
(Mobile browser)

ATC Audio Archives
Interesting Recordings

LiveATC Forums


Home Page
About LiveATC.net
Make a Donation
Terms of Use
Privacy Policy

Canadian Air Freqs

AIRMETs/SIGMETs

FAA Airport Status
Nat'l Airspace Status
Arrival Demand Charts


Server Software By:
Icecast.org
Liquidsoap